sensor_id;sensor_type;location;lat;lon;timestamp;P1;durP1;ratioP1;P2;durP2;ratioP2
65533;SDS011;53640;55.838;37.184;2023-08-07T00:01:09;3.90;;;3.00;;
65533;SDS011;53640;55.838;37.184;2023-08-07T00:03:35;3.20;;;2.72;;
65533;SDS011;53640;55.838;37.184;2023-08-07T00:06:02;2.92;;;2.40;;
65533;SDS011;53640;55.838;37.184;2023-08-07T00:08:28;3.05;;;2.70;;
65533;SDS011;53640;55.838;37.184;2023-08-07T00:11:09;3.15;;;2.50;;
65533;SDS011;53640;55.838;37.184;2023-08-07T00:13:36;4.70;;;2.67;;
65533;SDS011;53640;55.838;37.184;2023-08-07T00:16:03;3.80;;;2.70;;
65533;SDS011;53640;55.838;37.184;2023-08-07T00:18:29;3.65;;;2.92;;
65533;SDS011;53640;55.838;37.184;2023-08-07T00:20:56;5.35;;;3.20;;
65533;SDS011;53640;55.838;37.184;2023-08-07T00:23:23;3.20;;;2.88;;
65533;SDS011;53640;55.838;37.184;2023-08-07T00:25:49;3.83;;;2.80;;
65533;SDS011;53640;55.838;37.184;2023-08-07T00:28:15;3.38;;;3.08;;
65533;SDS011;53640;55.838;37.184;2023-08-07T00:30:42;3.00;;;2.67;;
65533;SDS011;53640;55.838;37.184;2023-08-07T00:33:08;2.95;;;2.72;;
65533;SDS011;53640;55.838;37.184;2023-08-07T00:35:35;3.45;;;2.83;;
65533;SDS011;53640;55.838;37.184;2023-08-07T00:38:02;6.20;;;3.05;;
65533;SDS011;53640;55.838;37.184;2023-08-07T00:40:35;2.90;;;2.63;;
65533;SDS011;53640;55.838;37.184;2023-08-07T00:43:03;3.45;;;3.15;;
65533;SDS011;53640;55.838;37.184;2023-08-07T00:45:31;4.85;;;2.83;;
65533;SDS011;53640;55.838;37.184;2023-08-07T00:48:03;3.35;;;2.90;;
65533;SDS011;53640;55.838;37.184;2023-08-07T00:50:30;2.75;;;2.55;;
65533;SDS011;53640;55.838;37.184;2023-08-07T00:52:57;4.70;;;3.35;;
65533;SDS011;53640;55.838;37.184;2023-08-07T00:55:24;3.08;;;2.78;;
65533;SDS011;53640;55.838;37.184;2023-08-07T00:57:51;3.70;;;2.95;;
65533;SDS011;53640;55.838;37.184;2023-08-07T01:00:17;3.13;;;2.83;;
65533;SDS011;53640;55.838;37.184;2023-08-07T01:02:44;3.10;;;2.80;;
65533;SDS011;53640;55.838;37.184;2023-08-07T01:05:11;4.00;;;2.67;;
65533;SDS011;53640;55.838;37.184;2023-08-07T01:07:37;6.32;;;2.50;;
65533;SDS011;53640;55.838;37.184;2023-08-07T01:10:04;6.47;;;3.10;;
65533;SDS011;53640;55.838;37.184;2023-08-07T01:12:36;3.60;;;2.65;;
65533;SDS011;53640;55.838;37.184;2023-08-07T01:15:14;4.35;;;2.70;;
65533;SDS011;53640;55.838;37.184;2023-08-07T01:17:46;3.03;;;2.72;;
65533;SDS011;53640;55.838;37.184;2023-08-07T01:20:14;3.20;;;2.63;;
65533;SDS011;53640;55.838;37.184;2023-08-07T01:22:40;2.65;;;2.45;;
65533;SDS011;53640;55.838;37.184;2023-08-07T01:25:07;5.32;;;2.80;;
65533;SDS011;53640;55.838;37.184;2023-08-07T01:27:35;3.95;;;2.50;;
65533;SDS011;53640;55.838;37.184;2023-08-07T01:35:20;3.60;;;2.75;;
65533;SDS011;53640;55.838;37.184;2023-08-07T01:37:53;2.72;;;2.53;;
65533;SDS011;53640;55.838;37.184;2023-08-07T01:40:22;3.28;;;2.60;;
65533;SDS011;53640;55.838;37.184;2023-08-07T01:42:49;2.80;;;2.53;;
65533;SDS011;53640;55.838;37.184;2023-08-07T01:45:25;3.83;;;2.50;;
65533;SDS011;53640;55.838;37.184;2023-08-07T01:47:52;4.68;;;2.55;;
65533;SDS011;53640;55.838;37.184;2023-08-07T01:50:20;4.35;;;3.28;;
65533;SDS011;53640;55.838;37.184;2023-08-07T01:52:47;2.90;;;2.60;;
65533;SDS011;53640;55.838;37.184;2023-08-07T01:55:14;3.15;;;2.30;;
65533;SDS011;53640;55.838;37.184;2023-08-07T01:57:49;6.60;;;2.97;;
65533;SDS011;53640;55.838;37.184;2023-08-07T02:00:15;4.63;;;2.60;;
65533;SDS011;53640;55.838;37.184;2023-08-07T02:02:42;6.25;;;2.95;;
65533;SDS011;53640;55.838;37.184;2023-08-07T02:05:10;3.75;;;3.00;;
65533;SDS011;53640;55.838;37.184;2023-08-07T02:07:37;3.38;;;2.95;;
65533;SDS011;53640;55.838;37.184;2023-08-07T02:10:03;3.80;;;2.53;;
65533;SDS011;53640;55.838;37.184;2023-08-07T02:12:32;4.38;;;2.80;;
65533;SDS011;53640;55.838;37.184;2023-08-07T02:15:03;3.03;;;2.72;;
65533;SDS011;53640;55.838;37.184;2023-08-07T02:17:35;3.70;;;2.95;;
65533;SDS011;53640;55.838;37.184;2023-08-07T02:20:05;6.75;;;2.85;;
65533;SDS011;53640;55.838;37.184;2023-08-07T02:22:32;3.38;;;2.70;;
65533;SDS011;53640;55.838;37.184;2023-08-07T02:24:58;3.20;;;2.95;;
65533;SDS011;53640;55.838;37.184;2023-08-07T02:27:25;3.05;;;2.72;;
65533;SDS011;53640;55.838;37.184;2023-08-07T02:29:51;4.10;;;2.92;;
65533;SDS011;53640;55.838;37.184;2023-08-07T02:32:17;2.65;;;2.45;;
65533;SDS011;53640;55.838;37.184;2023-08-07T02:34:44;2.95;;;2.58;;
65533;SDS011;53640;55.838;37.184;2023-08-07T02:37:11;2.85;;;2.47;;
65533;SDS011;53640;55.838;37.184;2023-08-07T02:39:37;4.55;;;2.70;;
65533;SDS011;53640;55.838;37.184;2023-08-07T02:42:04;3.72;;;2.65;;
65533;SDS011;53640;55.838;37.184;2023-08-07T02:44:30;3.53;;;3.10;;
65533;SDS011;53640;55.838;37.184;2023-08-07T02:46:56;3.75;;;2.92;;
65533;SDS011;53640;55.838;37.184;2023-08-07T02:49:23;3.80;;;2.78;;
65533;SDS011;53640;55.838;37.184;2023-08-07T02:51:49;3.88;;;3.00;;
65533;SDS011;53640;55.838;37.184;2023-08-07T02:54:15;2.85;;;2.65;;
65533;SDS011;53640;55.838;37.184;2023-08-07T02:56:42;4.32;;;2.80;;
65533;SDS011;53640;55.838;37.184;2023-08-07T02:59:08;5.10;;;2.80;;
65533;SDS011;53640;55.838;37.184;2023-08-07T03:01:34;5.28;;;3.13;;
65533;SDS011;53640;55.838;37.184;2023-08-07T03:04:01;3.22;;;2.92;;
65533;SDS011;53640;55.838;37.184;2023-08-07T03:06:27;4.10;;;2.90;;
65533;SDS011;53640;55.838;37.184;2023-08-07T03:08:53;3.90;;;2.80;;
65533;SDS011;53640;55.838;37.184;2023-08-07T03:11:20;3.25;;;2.95;;
65533;SDS011;53640;55.838;37.184;2023-08-07T03:13:47;4.40;;;3.20;;
65533;SDS011;53640;55.838;37.184;2023-08-07T03:16:15;3.80;;;2.50;;
65533;SDS011;53640;55.838;37.184;2023-08-07T03:18:41;5.18;;;2.92;;
65533;SDS011;53640;55.838;37.184;2023-08-07T03:21:07;4.63;;;2.78;;
65533;SDS011;53640;55.838;37.184;2023-08-07T03:23:34;7.55;;;3.55;;
65533;SDS011;53640;55.838;37.184;2023-08-07T03:26:05;4.75;;;3.00;;
65533;SDS011;53640;55.838;37.184;2023-08-07T03:28:38;4.15;;;2.60;;
65533;SDS011;53640;55.838;37.184;2023-08-07T03:31:04;5.10;;;3.22;;
65533;SDS011;53640;55.838;37.184;2023-08-07T03:33:34;2.83;;;2.63;;
65533;SDS011;53640;55.838;37.184;2023-08-07T03:36:01;3.92;;;3.00;;
65533;SDS011;53640;55.838;37.184;2023-08-07T03:38:28;4.93;;;3.03;;
65533;SDS011;53640;55.838;37.184;2023-08-07T03:40:56;3.42;;;2.75;;
65533;SDS011;53640;55.838;37.184;2023-08-07T03:43:23;5.40;;;2.65;;
65533;SDS011;53640;55.838;37.184;2023-08-07T03:45:53;5.07;;;3.03;;
65533;SDS011;53640;55.838;37.184;2023-08-07T03:48:21;5.30;;;2.90;;
65533;SDS011;53640;55.838;37.184;2023-08-07T03:50:48;3.13;;;2.63;;
65533;SDS011;53640;55.838;37.184;2023-08-07T03:53:16;4.60;;;2.70;;
65533;SDS011;53640;55.838;37.184;2023-08-07T03:55:54;2.83;;;2.63;;
65533;SDS011;53640;55.838;37.184;2023-08-07T03:58:22;7.43;;;2.60;;
65533;SDS011;53640;55.838;37.184;2023-08-07T04:00:50;5.05;;;2.67;;
65533;SDS011;53640;55.838;37.184;2023-08-07T04:03:21;2.97;;;2.72;;
65533;SDS011;53640;55.838;37.184;2023-08-07T04:05:51;3.35;;;2.65;;
65533;SDS011;53640;55.838;37.184;2023-08-07T04:08:18;7.80;;;3.17;;
65533;SDS011;53640;55.838;37.184;2023-08-07T04:10:45;3.25;;;2.80;;
65533;SDS011;53640;55.838;37.184;2023-08-07T04:13:12;2.88;;;2.67;;
65533;SDS011;53640;55.838;37.184;2023-08-07T04:15:38;4.25;;;3.08;;
65533;SDS011;53640;55.838;37.184;2023-08-07T04:18:04;2.72;;;2.53;;
65533;SDS011;53640;55.838;37.184;2023-08-07T04:20:31;4.90;;;2.55;;
65533;SDS011;53640;55.838;37.184;2023-08-07T04:22:58;2.83;;;2.63;;
65533;SDS011;53640;55.838;37.184;2023-08-07T04:25:24;2.83;;;2.50;;
65533;SDS011;53640;55.838;37.184;2023-08-07T04:27:51;3.78;;;2.67;;
65533;SDS011;53640;55.838;37.184;2023-08-07T04:30:17;3.53;;;2.67;;
65533;SDS011;53640;55.838;37.184;2023-08-07T04:32:43;4.28;;;2.63;;
65533;SDS011;53640;55.838;37.184;2023-08-07T04:35:10;5.35;;;2.63;;
65533;SDS011;53640;55.838;37.184;2023-08-07T04:37:36;3.80;;;2.70;;
65533;SDS011;53640;55.838;37.184;2023-08-07T04:40:02;3.40;;;2.35;;
65533;SDS011;53640;55.838;37.184;2023-08-07T04:42:30;3.90;;;2.60;;
65533;SDS011;53640;55.838;37.184;2023-08-07T04:44:58;4.35;;;2.30;;
65533;SDS011;53640;55.838;37.184;2023-08-07T04:47:24;4.63;;;2.40;;
65533;SDS011;53640;55.838;37.184;2023-08-07T04:49:51;3.08;;;2.10;;
65533;SDS011;53640;55.838;37.184;2023-08-07T04:52:17;2.70;;;2.28;;
65533;SDS011;53640;55.838;37.184;2023-08-07T04:54:43;3.38;;;2.40;;
65533;SDS011;53640;55.838;37.184;2023-08-07T04:57:12;6.88;;;2.78;;
65533;SDS011;53640;55.838;37.184;2023-08-07T04:59:38;2.92;;;2.50;;
65533;SDS011;53640;55.838;37.184;2023-08-07T05:02:05;3.20;;;2.53;;
65533;SDS011;53640;55.838;37.184;2023-08-07T05:04:31;4.40;;;2.58;;
65533;SDS011;53640;55.838;37.184;2023-08-07T05:06:57;2.75;;;2.50;;
65533;SDS011;53640;55.838;37.184;2023-08-07T05:09:24;4.13;;;2.50;;
65533;SDS011;53640;55.838;37.184;2023-08-07T05:11:51;2.42;;;2.20;;
65533;SDS011;53640;55.838;37.184;2023-08-07T05:14:17;3.78;;;2.28;;
65533;SDS011;53640;55.838;37.184;2023-08-07T05:16:46;4.70;;;2.80;;
65533;SDS011;53640;55.838;37.184;2023-08-07T05:19:22;4.50;;;2.40;;
65533;SDS011;53640;55.838;37.184;2023-08-07T05:21:52;2.80;;;2.60;;
65533;SDS011;53640;55.838;37.184;2023-08-07T05:24:24;4.13;;;2.63;;
65533;SDS011;53640;55.838;37.184;2023-08-07T05:26:50;3.88;;;2.63;;
65533;SDS011;53640;55.838;37.184;2023-08-07T05:29:17;8.13;;;2.70;;
65533;SDS011;53640;55.838;37.184;2023-08-07T05:31:43;4.57;;;2.47;;
65533;SDS011;53640;55.838;37.184;2023-08-07T05:34:10;4.03;;;2.58;;
65533;SDS011;53640;55.838;37.184;2023-08-07T05:36:36;4.03;;;2.33;;
65533;SDS011;53640;55.838;37.184;2023-08-07T05:39:04;3.90;;;2.30;;
65533;SDS011;53640;55.838;37.184;2023-08-07T05:41:30;5.13;;;2.55;;
65533;SDS011;53640;55.838;37.184;2023-08-07T05:43:57;3.75;;;2.25;;
65533;SDS011;53640;55.838;37.184;2023-08-07T05:46:26;4.93;;;2.50;;
65533;SDS011;53640;55.838;37.184;2023-08-07T05:48:53;3.17;;;2.40;;
65533;SDS011;53640;55.838;37.184;2023-08-07T05:51:19;3.97;;;2.13;;
65533;SDS011;53640;55.838;37.184;2023-08-07T05:53:45;3.58;;;2.00;;
65533;SDS011;53640;55.838;37.184;2023-08-07T05:56:12;2.33;;;2.13;;
65533;SDS011;53640;55.838;37.184;2023-08-07T05:58:38;6.68;;;2.38;;
65533;SDS011;53640;55.838;37.184;2023-08-07T06:01:05;2.78;;;2.08;;
65533;SDS011;53640;55.838;37.184;2023-08-07T06:03:31;2.55;;;2.05;;
65533;SDS011;53640;55.838;37.184;2023-08-07T06:05:58;2.75;;;1.92;;
65533;SDS011;53640;55.838;37.184;2023-08-07T06:08:28;5.35;;;2.20;;
65533;SDS011;53640;55.838;37.184;2023-08-07T06:10:55;4.28;;;2.10;;
65533;SDS011;53640;55.838;37.184;2023-08-07T06:13:21;2.58;;;1.98;;
65533;SDS011;53640;55.838;37.184;2023-08-07T06:15:47;2.58;;;1.95;;
65533;SDS011;53640;55.838;37.184;2023-08-07T06:18:14;4.43;;;2.35;;
65533;SDS011;53640;55.838;37.184;2023-08-07T06:20:42;5.03;;;2.55;;
65533;SDS011;53640;55.838;37.184;2023-08-07T06:23:10;6.72;;;2.42;;
65533;SDS011;53640;55.838;37.184;2023-08-07T06:25:36;3.30;;;2.60;;
65533;SDS011;53640;55.838;37.184;2023-08-07T06:28:03;7.80;;;2.10;;
65533;SDS011;53640;55.838;37.184;2023-08-07T06:30:36;2.25;;;1.95;;
65533;SDS011;53640;55.838;37.184;2023-08-07T06:33:49;3.60;;;2.30;;
65533;SDS011;53640;55.838;37.184;2023-08-07T06:36:23;6.85;;;2.03;;
65533;SDS011;53640;55.838;37.184;2023-08-07T06:38:51;5.22;;;2.72;;
65533;SDS011;53640;55.838;37.184;2023-08-07T06:41:18;5.53;;;3.03;;
65533;SDS011;53640;55.838;37.184;2023-08-07T06:43:49;7.07;;;2.42;;
65533;SDS011;53640;55.838;37.184;2023-08-07T06:46:17;12.32;;;2.10;;
65533;SDS011;53640;55.838;37.184;2023-08-07T06:48:52;10.85;;;2.22;;
65533;SDS011;53640;55.838;37.184;2023-08-07T06:51:19;3.85;;;1.90;;
65533;SDS011;53640;55.838;37.184;2023-08-07T06:53:46;7.85;;;1.95;;
65533;SDS011;53640;55.838;37.184;2023-08-07T06:56:12;9.10;;;2.42;;
65533;SDS011;53640;55.838;37.184;2023-08-07T06:58:39;5.60;;;2.25;;
65533;SDS011;53640;55.838;37.184;2023-08-07T07:01:07;5.40;;;2.60;;
65533;SDS011;53640;55.838;37.184;2023-08-07T07:03:39;7.78;;;2.15;;
65533;SDS011;53640;55.838;37.184;2023-08-07T07:06:20;3.58;;;2.15;;
65533;SDS011;53640;55.838;37.184;2023-08-07T07:08:47;8.43;;;2.30;;
65533;SDS011;53640;55.838;37.184;2023-08-07T07:11:13;9.38;;;2.30;;
65533;SDS011;53640;55.838;37.184;2023-08-07T07:13:43;6.15;;;1.95;;
65533;SDS011;53640;55.838;37.184;2023-08-07T07:16:10;6.03;;;2.15;;
65533;SDS011;53640;55.838;37.184;2023-08-07T07:18:39;8.27;;;2.28;;
65533;SDS011;53640;55.838;37.184;2023-08-07T07:21:05;4.28;;;2.20;;
65533;SDS011;53640;55.838;37.184;2023-08-07T07:23:32;4.22;;;2.30;;
65533;SDS011;53640;55.838;37.184;2023-08-07T07:25:58;3.75;;;2.05;;
65533;SDS011;53640;55.838;37.184;2023-08-07T07:28:30;5.65;;;2.00;;
65533;SDS011;53640;55.838;37.184;2023-08-07T07:30:57;3.80;;;2.45;;
65533;SDS011;53640;55.838;37.184;2023-08-07T07:33:24;6.63;;;2.53;;
65533;SDS011;53640;55.838;37.184;2023-08-07T07:35:53;8.48;;;2.10;;
65533;SDS011;53640;55.838;37.184;2023-08-07T07:38:20;4.10;;;1.92;;
65533;SDS011;53640;55.838;37.184;2023-08-07T07:40:49;8.60;;;2.63;;
65533;SDS011;53640;55.838;37.184;2023-08-07T07:43:15;6.05;;;1.92;;
65533;SDS011;53640;55.838;37.184;2023-08-07T07:49:12;8.07;;;2.10;;
65533;SDS011;53640;55.838;37.184;2023-08-07T07:51:49;8.10;;;2.00;;
65533;SDS011;53640;55.838;37.184;2023-08-07T07:54:25;13.20;;;2.03;;
65533;SDS011;53640;55.838;37.184;2023-08-07T08:08:00;4.35;;;1.92;;
65533;SDS011;53640;55.838;37.184;2023-08-07T08:11:43;4.13;;;1.80;;
65533;SDS011;53640;55.838;37.184;2023-08-07T08:14:44;3.67;;;1.95;;
65533;SDS011;53640;55.838;37.184;2023-08-07T08:17:15;3.10;;;2.00;;
65533;SDS011;53640;55.838;37.184;2023-08-07T08:19:49;6.53;;;2.00;;
65533;SDS011;53640;55.838;37.184;2023-08-07T08:22:35;8.48;;;2.00;;
65533;SDS011;53640;55.838;37.184;2023-08-07T08:25:54;5.70;;;2.00;;
65533;SDS011;53640;55.838;37.184;2023-08-07T08:28:52;13.57;;;2.17;;
65533;SDS011;53640;55.838;37.184;2023-08-07T08:31:22;5.22;;;2.08;;
65533;SDS011;53640;55.838;37.184;2023-08-07T08:33:55;2.30;;;1.75;;
65533;SDS011;53640;55.838;37.184;2023-08-07T08:38:52;6.85;;;1.95;;
65533;SDS011;53640;55.838;37.184;2023-08-07T08:41:19;10.65;;;2.00;;
65533;SDS011;53640;55.838;37.184;2023-08-07T08:43:47;7.18;;;2.10;;
65533;SDS011;53640;55.838;37.184;2023-08-07T08:46:15;3.30;;;1.75;;
65533;SDS011;53640;55.838;37.184;2023-08-07T08:48:47;8.48;;;1.70;;
65533;SDS011;53640;55.838;37.184;2023-08-07T08:51:22;5.78;;;2.00;;
65533;SDS011;53640;55.838;37.184;2023-08-07T08:53:52;5.50;;;1.98;;
65533;SDS011;53640;55.838;37.184;2023-08-07T08:56:22;4.80;;;2.00;;
65533;SDS011;53640;55.838;37.184;2023-08-07T08:58:50;14.88;;;2.47;;
65533;SDS011;53640;55.838;37.184;2023-08-07T09:01:19;3.53;;;2.03;;
65533;SDS011;53640;55.838;37.184;2023-08-07T09:03:46;7.63;;;1.88;;
65533;SDS011;53640;55.838;37.184;2023-08-07T09:06:13;14.98;;;1.90;;
65533;SDS011;53640;55.838;37.184;2023-08-07T09:08:40;7.50;;;1.60;;
65533;SDS011;53640;55.838;37.184;2023-08-07T09:11:10;5.78;;;2.08;;
65533;SDS011;53640;55.838;37.184;2023-08-07T09:13:36;4.53;;;1.90;;
65533;SDS011;53640;55.838;37.184;2023-08-07T09:16:04;8.98;;;2.08;;
65533;SDS011;53640;55.838;37.184;2023-08-07T09:18:36;10.00;;;2.03;;
65533;SDS011;53640;55.838;37.184;2023-08-07T09:21:03;6.88;;;1.90;;
65533;SDS011;53640;55.838;37.184;2023-08-07T09:23:30;3.67;;;2.00;;
65533;SDS011;53640;55.838;37.184;2023-08-07T09:26:01;6.57;;;2.20;;
65533;SDS011;53640;55.838;37.184;2023-08-07T09:28:30;2.30;;;1.80;;
65533;SDS011;53640;55.838;37.184;2023-08-07T09:30:58;10.68;;;2.20;;
65533;SDS011;53640;55.838;37.184;2023-08-07T09:33:26;5.85;;;1.90;;
65533;SDS011;53640;55.838;37.184;2023-08-07T09:35:56;6.43;;;2.05;;
65533;SDS011;53640;55.838;37.184;2023-08-07T09:38:26;3.45;;;1.73;;
65533;SDS011;53640;55.838;37.184;2023-08-07T09:40:57;8.70;;;1.85;;
65533;SDS011;53640;55.838;37.184;2023-08-07T09:43:24;4.45;;;1.85;;
65533;SDS011;53640;55.838;37.184;2023-08-07T09:45:52;4.68;;;1.70;;
65533;SDS011;53640;55.838;37.184;2023-08-07T09:48:24;4.80;;;1.88;;
65533;SDS011;53640;55.838;37.184;2023-08-07T09:50:51;4.32;;;1.95;;
65533;SDS011;53640;55.838;37.184;2023-08-07T09:53:17;3.47;;;1.80;;
65533;SDS011;53640;55.838;37.184;2023-08-07T09:55:52;9.95;;;2.00;;
65533;SDS011;53640;55.838;37.184;2023-08-07T09:58:18;5.45;;;2.13;;
65533;SDS011;53640;55.838;37.184;2023-08-07T10:00:46;3.63;;;1.85;;
65533;SDS011;53640;55.838;37.184;2023-08-07T10:03:13;6.07;;;1.80;;
65533;SDS011;53640;55.838;37.184;2023-08-07T10:05:41;5.32;;;1.73;;
65533;SDS011;53640;55.838;37.184;2023-08-07T10:08:10;4.82;;;2.10;;
65533;SDS011;53640;55.838;37.184;2023-08-07T10:10:37;6.78;;;1.70;;
65533;SDS011;53640;55.838;37.184;2023-08-07T10:13:06;7.50;;;1.75;;
65533;SDS011;53640;55.838;37.184;2023-08-07T10:15:33;9.77;;;1.90;;
65533;SDS011;53640;55.838;37.184;2023-08-07T10:18:02;5.10;;;2.30;;
65533;SDS011;53640;55.838;37.184;2023-08-07T10:20:30;8.80;;;2.17;;
65533;SDS011;53640;55.838;37.184;2023-08-07T10:22:57;4.35;;;1.90;;
65533;SDS011;53640;55.838;37.184;2023-08-07T10:25:34;5.20;;;1.60;;
65533;SDS011;53640;55.838;37.184;2023-08-07T10:28:08;3.28;;;1.63;;
65533;SDS011;53640;55.838;37.184;2023-08-07T10:30:36;9.48;;;1.98;;
65533;SDS011;53640;55.838;37.184;2023-08-07T10:33:04;5.25;;;1.90;;
65533;SDS011;53640;55.838;37.184;2023-08-07T10:35:33;4.45;;;1.80;;
65533;SDS011;53640;55.838;37.184;2023-08-07T10:38:10;3.55;;;1.70;;
65533;SDS011;53640;55.838;37.184;2023-08-07T10:43:32;5.05;;;1.77;;
65533;SDS011;53640;55.838;37.184;2023-08-07T10:46:04;1.92;;;1.80;;
65533;SDS011;53640;55.838;37.184;2023-08-07T10:48:37;2.53;;;1.50;;
65533;SDS011;53640;55.838;37.184;2023-08-07T10:51:05;5.55;;;1.77;;
65533;SDS011;53640;55.838;37.184;2023-08-07T10:56:05;4.50;;;1.75;;
65533;SDS011;53640;55.838;37.184;2023-08-07T10:58:36;3.67;;;1.80;;
65533;SDS011;53640;55.838;37.184;2023-08-07T11:03:50;4.82;;;1.85;;
65533;SDS011;53640;55.838;37.184;2023-08-07T11:06:21;6.93;;;2.00;;
65533;SDS011;53640;55.838;37.184;2023-08-07T11:08:49;4.28;;;1.80;;
65533;SDS011;53640;55.838;37.184;2023-08-07T11:11:17;8.50;;;2.00;;
65533;SDS011;53640;55.838;37.184;2023-08-07T11:13:43;7.18;;;1.77;;
65533;SDS011;53640;55.838;37.184;2023-08-07T11:16:10;2.95;;;1.70;;
65533;SDS011;53640;55.838;37.184;2023-08-07T11:18:38;4.32;;;1.83;;
65533;SDS011;53640;55.838;37.184;2023-08-07T11:21:08;1.80;;;1.38;;
65533;SDS011;53640;55.838;37.184;2023-08-07T11:23:37;2.00;;;1.80;;
65533;SDS011;53640;55.838;37.184;2023-08-07T11:26:04;4.78;;;1.90;;
65533;SDS011;53640;55.838;37.184;2023-08-07T11:28:31;6.47;;;2.00;;
65533;SDS011;53640;55.838;37.184;2023-08-07T11:30:58;4.90;;;2.00;;
65533;SDS011;53640;55.838;37.184;2023-08-07T11:33:25;6.85;;;2.13;;
65533;SDS011;53640;55.838;37.184;2023-08-07T11:35:54;2.92;;;2.00;;
65533;SDS011;53640;55.838;37.184;2023-08-07T11:38:34;2.38;;;1.73;;
65533;SDS011;53640;55.838;37.184;2023-08-07T11:41:00;7.78;;;3.50;;
65533;SDS011;53640;55.838;37.184;2023-08-07T11:43:29;5.25;;;1.95;;
65533;SDS011;53640;55.838;37.184;2023-08-07T11:45:56;12.32;;;3.80;;
65533;SDS011;53640;55.838;37.184;2023-08-07T11:48:25;4.95;;;2.28;;
65533;SDS011;53640;55.838;37.184;2023-08-07T11:50:53;7.60;;;2.45;;
65533;SDS011;53640;55.838;37.184;2023-08-07T11:53:21;5.13;;;2.40;;
65533;SDS011;53640;55.838;37.184;2023-08-07T11:55:51;8.05;;;2.10;;
65533;SDS011;53640;55.838;37.184;2023-08-07T11:58:31;6.60;;;3.30;;
65533;SDS011;53640;55.838;37.184;2023-08-07T12:01:03;7.53;;;2.22;;
65533;SDS011;53640;55.838;37.184;2023-08-07T12:03:37;5.50;;;2.00;;
65533;SDS011;53640;55.838;37.184;2023-08-07T12:06:06;4.38;;;2.10;;
65533;SDS011;53640;55.838;37.184;2023-08-07T12:08:37;5.72;;;1.98;;
65533;SDS011;53640;55.838;37.184;2023-08-07T12:11:06;3.80;;;1.85;;
65533;SDS011;53640;55.838;37.184;2023-08-07T12:16:04;6.25;;;2.17;;
65533;SDS011;53640;55.838;37.184;2023-08-07T12:18:31;3.05;;;2.20;;
65533;SDS011;53640;55.838;37.184;2023-08-07T12:21:02;4.07;;;2.10;;
65533;SDS011;53640;55.838;37.184;2023-08-07T12:23:32;4.00;;;1.85;;
65533;SDS011;53640;55.838;37.184;2023-08-07T12:26:00;3.85;;;2.28;;
65533;SDS011;53640;55.838;37.184;2023-08-07T12:28:28;18.20;;;2.75;;
65533;SDS011;53640;55.838;37.184;2023-08-07T12:30:57;8.35;;;2.13;;
65533;SDS011;53640;55.838;37.184;2023-08-07T12:33:28;3.88;;;2.00;;
65533;SDS011;53640;55.838;37.184;2023-08-07T12:35:56;4.97;;;2.40;;
65533;SDS011;53640;55.838;37.184;2023-08-07T12:38:24;3.40;;;2.10;;
65533;SDS011;53640;55.838;37.184;2023-08-07T12:40:50;3.92;;;2.70;;
65533;SDS011;53640;55.838;37.184;2023-08-07T12:43:20;2.13;;;1.93;;
65533;SDS011;53640;55.838;37.184;2023-08-07T12:45:47;3.28;;;1.90;;
65533;SDS011;53640;55.838;37.184;2023-08-07T12:48:14;5.75;;;2.13;;
65533;SDS011;53640;55.838;37.184;2023-08-07T12:50:40;2.78;;;2.10;;
65533;SDS011;53640;55.838;37.184;2023-08-07T12:53:10;3.22;;;2.20;;
65533;SDS011;53640;55.838;37.184;2023-08-07T12:55:36;5.40;;;1.90;;
65533;SDS011;53640;55.838;37.184;2023-08-07T12:58:02;2.75;;;2.22;;
65533;SDS011;53640;55.838;37.184;2023-08-07T13:00:29;5.15;;;2.00;;
65533;SDS011;53640;55.838;37.184;2023-08-07T13:02:56;2.22;;;1.80;;
65533;SDS011;53640;55.838;37.184;2023-08-07T13:05:22;13.02;;;3.03;;
65533;SDS011;53640;55.838;37.184;2023-08-07T13:07:49;2.85;;;1.88;;
65533;SDS011;53640;55.838;37.184;2023-08-07T13:10:20;6.40;;;2.20;;
65533;SDS011;53640;55.838;37.184;2023-08-07T13:12:48;6.50;;;2.45;;
65533;SDS011;53640;55.838;37.184;2023-08-07T13:15:16;7.65;;;2.22;;
65533;SDS011;53640;55.838;37.184;2023-08-07T13:17:43;6.45;;;2.17;;
65533;SDS011;53640;55.838;37.184;2023-08-07T13:20:11;4.03;;;2.10;;
65533;SDS011;53640;55.838;37.184;2023-08-07T13:22:40;5.57;;;1.90;;
65533;SDS011;53640;55.838;37.184;2023-08-07T13:25:09;6.18;;;2.30;;
65533;SDS011;53640;55.838;37.184;2023-08-07T13:27:37;2.78;;;2.03;;
65533;SDS011;53640;55.838;37.184;2023-08-07T13:30:07;6.60;;;2.20;;
65533;SDS011;53640;55.838;37.184;2023-08-07T13:32:50;2.80;;;2.00;;
65533;SDS011;53640;55.838;37.184;2023-08-07T13:35:17;6.68;;;2.47;;
65533;SDS011;53640;55.838;37.184;2023-08-07T13:43:56;4.30;;;2.03;;
65533;SDS011;53640;55.838;37.184;2023-08-07T14:25:22;5.43;;;2.45;;
65533;SDS011;53640;55.838;37.184;2023-08-07T14:28:41;2.30;;;2.10;;
65533;SDS011;53640;55.838;37.184;2023-08-07T14:32:04;5.30;;;2.30;;
65533;SDS011;53640;55.838;37.184;2023-08-07T14:35:00;4.90;;;2.17;;
65533;SDS011;53640;55.838;37.184;2023-08-07T14:38:13;2.70;;;2.08;;
65533;SDS011;53640;55.838;37.184;2023-08-07T14:41:27;5.50;;;2.60;;
65533;SDS011;53640;55.838;37.184;2023-08-07T14:49:11;7.90;;;2.30;;
65533;SDS011;53640;55.838;37.184;2023-08-07T14:52:21;3.10;;;1.97;;
65533;SDS011;53640;55.838;37.184;2023-08-07T14:55:47;3.20;;;2.17;;
65533;SDS011;53640;55.838;37.184;2023-08-07T14:58:44;6.60;;;2.42;;
65533;SDS011;53640;55.838;37.184;2023-08-07T15:02:02;4.25;;;2.40;;
65533;SDS011;53640;55.838;37.184;2023-08-07T15:05:28;3.88;;;2.20;;
65533;SDS011;53640;55.838;37.184;2023-08-07T15:08:39;3.25;;;2.20;;
65533;SDS011;53640;55.838;37.184;2023-08-07T15:11:38;3.00;;;2.10;;
65533;SDS011;53640;55.838;37.184;2023-08-07T15:18:07;8.45;;;2.22;;
65533;SDS011;53640;55.838;37.184;2023-08-07T15:20:48;2.08;;;1.95;;
65533;SDS011;53640;55.838;37.184;2023-08-07T15:23:42;2.13;;;1.90;;
65533;SDS011;53640;55.838;37.184;2023-08-07T15:26:15;2.45;;;1.73;;
65533;SDS011;53640;55.838;37.184;2023-08-07T15:28:41;3.65;;;2.20;;
65533;SDS011;53640;55.838;37.184;2023-08-07T15:31:08;4.05;;;2.05;;
65533;SDS011;53640;55.838;37.184;2023-08-07T15:33:34;3.15;;;2.20;;
65533;SDS011;53640;55.838;37.184;2023-08-07T15:36:00;2.65;;;1.98;;
65533;SDS011;53640;55.838;37.184;2023-08-07T15:38:27;3.33;;;2.00;;
65533;SDS011;53640;55.838;37.184;2023-08-07T15:40:54;9.18;;;2.30;;
65533;SDS011;53640;55.838;37.184;2023-08-07T15:43:24;4.78;;;2.47;;
65533;SDS011;53640;55.838;37.184;2023-08-07T15:45:56;3.65;;;2.13;;
65533;SDS011;53640;55.838;37.184;2023-08-07T15:48:23;2.45;;;2.00;;
65533;SDS011;53640;55.838;37.184;2023-08-07T15:50:49;2.83;;;2.08;;
65533;SDS011;53640;55.838;37.184;2023-08-07T15:53:15;3.60;;;2.00;;
65533;SDS011;53640;55.838;37.184;2023-08-07T15:55:46;4.93;;;2.38;;
65533;SDS011;53640;55.838;37.184;2023-08-07T15:58:12;4.63;;;2.08;;
65533;SDS011;53640;55.838;37.184;2023-08-07T16:00:39;1.83;;;1.73;;
65533;SDS011;53640;55.838;37.184;2023-08-07T16:03:05;5.03;;;1.92;;
65533;SDS011;53640;55.838;37.184;2023-08-07T16:05:34;3.15;;;2.50;;
65533;SDS011;53640;55.838;37.184;2023-08-07T16:08:02;3.72;;;1.98;;
65533;SDS011;53640;55.838;37.184;2023-08-07T16:10:28;3.83;;;2.20;;
65533;SDS011;53640;55.838;37.184;2023-08-07T16:12:55;2.80;;;2.17;;
65533;SDS011;53640;55.838;37.184;2023-08-07T16:15:22;5.38;;;2.13;;
65533;SDS011;53640;55.838;37.184;2023-08-07T16:17:49;4.10;;;2.30;;
65533;SDS011;53640;55.838;37.184;2023-08-07T16:20:15;3.97;;;2.30;;